sensor_id;sensor_type;location;lat;lon;timestamp;temperature;humidity
11848;DHT22;5983;49.966;8.052;2022-12-07T00:00:44;3.70;99.90
11848;DHT22;5983;49.966;8.052;2022-12-07T00:03:16;3.80;99.90
11848;DHT22;5983;49.966;8.052;2022-12-07T00:05:43;3.90;99.90
11848;DHT22;5983;49.966;8.052;2022-12-07T00:08:11;3.90;99.90
11848;DHT22;5983;49.966;8.052;2022-12-07T00:10:38;3.90;99.90
11848;DHT22;5983;49.966;8.052;2022-12-07T00:13:05;4.00;99.90
11848;DHT22;5983;49.966;8.052;2022-12-07T00:15:33;4.10;99.90
11848;DHT22;5983;49.966;8.052;2022-12-07T00:25:39;4.20;99.90
11848;DHT22;5983;49.966;8.052;2022-12-07T00:28:06;4.20;99.90
11848;DHT22;5983;49.966;8.052;2022-12-07T00:30:34;4.20;99.90
11848;DHT22;5983;49.966;8.052;2022-12-07T00:33:01;4.30;99.90
11848;DHT22;5983;49.966;8.052;2022-12-07T00:35:28;4.30;99.90
11848;DHT22;5983;49.966;8.052;2022-12-07T00:37:55;4.30;99.90
11848;DHT22;5983;49.966;8.052;2022-12-07T00:40:22;4.40;99.90
11848;DHT22;5983;49.966;8.052;2022-12-07T00:42:50;4.40;99.90
11848;DHT22;5983;49.966;8.052;2022-12-07T00:45:17;4.40;99.90
11848;DHT22;5983;49.966;8.052;2022-12-07T00:47:44;4.40;99.90
11848;DHT22;5983;49.966;8.052;2022-12-07T00:50:11;4.40;99.90
11848;DHT22;5983;49.966;8.052;2022-12-07T00:52:38;4.40;99.90
11848;DHT22;5983;49.966;8.052;2022-12-07T00:55:06;4.40;99.90
11848;DHT22;5983;49.966;8.052;2022-12-07T00:57:33;4.40;99.90
11848;DHT22;5983;49.966;8.052;2022-12-07T01:00:01;4.40;99.90
11848;DHT22;5983;49.966;8.052;2022-12-07T01:02:29;4.30;99.90
11848;DHT22;5983;49.966;8.052;2022-12-07T01:04:56;4.30;99.90
11848;DHT22;5983;49.966;8.052;2022-12-07T01:07:23;4.30;99.90
11848;DHT22;5983;49.966;8.052;2022-12-07T01:09:50;4.20;99.90
11848;DHT22;5983;49.966;8.052;2022-12-07T01:12:17;4.10;99.90
11848;DHT22;5983;49.966;8.052;2022-12-07T01:14:44;4.10;99.90
11848;DHT22;5983;49.966;8.052;2022-12-07T01:17:12;4.00;99.90
11848;DHT22;5983;49.966;8.052;2022-12-07T01:19:39;4.00;99.90
11848;DHT22;5983;49.966;8.052;2022-12-07T01:22:06;4.00;99.90
11848;DHT22;5983;49.966;8.052;2022-12-07T01:24:33;4.00;99.90
11848;DHT22;5983;49.966;8.052;2022-12-07T01:27:00;4.00;99.90
11848;DHT22;5983;49.966;8.052;2022-12-07T01:29:27;4.10;99.90
11848;DHT22;5983;49.966;8.052;2022-12-07T01:31:54;4.10;99.90
11848;DHT22;5983;49.966;8.052;2022-12-07T01:34:22;4.10;99.90
11848;DHT22;5983;49.966;8.052;2022-12-07T01:36:49;4.10;99.90
11848;DHT22;5983;49.966;8.052;2022-12-07T01:39:16;4.10;99.90
11848;DHT22;5983;49.966;8.052;2022-12-07T01:41:43;4.20;99.90
11848;DHT22;5983;49.966;8.052;2022-12-07T01:44:14;4.20;99.90
11848;DHT22;5983;49.966;8.052;2022-12-07T01:46:44;4.20;99.90
11848;DHT22;5983;49.966;8.052;2022-12-07T01:49:17;4.30;99.90
11848;DHT22;5983;49.966;8.052;2022-12-07T01:51:54;4.30;99.90
11848;DHT22;5983;49.966;8.052;2022-12-07T01:54:27;4.30;99.90
11848;DHT22;5983;49.966;8.052;2022-12-07T01:56:57;4.40;99.90
11848;DHT22;5983;49.966;8.052;2022-12-07T01:59:25;4.40;99.90
11848;DHT22;5983;49.966;8.052;2022-12-07T02:01:54;4.40;99.90
11848;DHT22;5983;49.966;8.052;2022-12-07T02:04:22;4.40;99.90
11848;DHT22;5983;49.966;8.052;2022-12-07T02:06:51;4.40;99.90
11848;DHT22;5983;49.966;8.052;2022-12-07T02:09:21;4.40;99.90
11848;DHT22;5983;49.966;8.052;2022-12-07T02:11:48;4.40;99.90
11848;DHT22;5983;49.966;8.052;2022-12-07T02:14:16;4.40;99.90
11848;DHT22;5983;49.966;8.052;2022-12-07T02:16:51;4.30;99.90
11848;DHT22;5983;49.966;8.052;2022-12-07T02:20:17;4.40;99.90
11848;DHT22;5983;49.966;8.052;2022-12-07T02:23:40;4.40;99.90
11848;DHT22;5983;49.966;8.052;2022-12-07T02:26:40;4.40;99.90
11848;DHT22;5983;49.966;8.052;2022-12-07T02:29:22;4.40;99.90
11848;DHT22;5983;49.966;8.052;2022-12-07T02:32:00;4.40;99.90
11848;DHT22;5983;49.966;8.052;2022-12-07T02:34:35;4.40;99.90
11848;DHT22;5983;49.966;8.052;2022-12-07T02:37:17;4.50;99.90
11848;DHT22;5983;49.966;8.052;2022-12-07T02:39:55;4.50;99.90
11848;DHT22;5983;49.966;8.052;2022-12-07T02:42:30;4.50;99.90
11848;DHT22;5983;49.966;8.052;2022-12-07T02:45:04;4.50;99.90
11848;DHT22;5983;49.966;8.052;2022-12-07T02:47:34;4.50;99.90
11848;DHT22;5983;49.966;8.052;2022-12-07T02:50:04;4.50;99.90
11848;DHT22;5983;49.966;8.052;2022-12-07T02:52:32;4.50;99.90
11848;DHT22;5983;49.966;8.052;2022-12-07T02:54:59;4.50;99.90
11848;DHT22;5983;49.966;8.052;2022-12-07T03:00:25;4.60;99.90
11848;DHT22;5983;49.966;8.052;2022-12-07T03:02:55;4.60;99.90
11848;DHT22;5983;49.966;8.052;2022-12-07T03:05:46;4.70;99.90
11848;DHT22;5983;49.966;8.052;2022-12-07T03:08:29;4.70;99.90
11848;DHT22;5983;49.966;8.052;2022-12-07T03:11:03;4.70;99.90
11848;DHT22;5983;49.966;8.052;2022-12-07T03:13:38;4.70;99.90
11848;DHT22;5983;49.966;8.052;2022-12-07T03:16:15;4.70;99.90
11848;DHT22;5983;49.966;8.052;2022-12-07T03:18:47;4.70;99.90
11848;DHT22;5983;49.966;8.052;2022-12-07T03:21:21;4.70;99.90
11848;DHT22;5983;49.966;8.052;2022-12-07T03:23:55;4.70;99.90
11848;DHT22;5983;49.966;8.052;2022-12-07T03:26:26;4.70;99.90
11848;DHT22;5983;49.966;8.052;2022-12-07T03:29:01;4.70;99.90
11848;DHT22;5983;49.966;8.052;2022-12-07T03:31:37;4.70;99.90
11848;DHT22;5983;49.966;8.052;2022-12-07T03:34:11;4.70;99.90
11848;DHT22;5983;49.966;8.052;2022-12-07T03:36:47;4.70;99.90
11848;DHT22;5983;49.966;8.052;2022-12-07T03:39:24;4.70;99.90
11848;DHT22;5983;49.966;8.052;2022-12-07T03:41:56;4.70;99.90
11848;DHT22;5983;49.966;8.052;2022-12-07T03:44:27;4.70;99.90
11848;DHT22;5983;49.966;8.052;2022-12-07T03:47:01;4.60;99.90
11848;DHT22;5983;49.966;8.052;2022-12-07T03:49:38;4.60;99.90
11848;DHT22;5983;49.966;8.052;2022-12-07T03:52:15;4.60;99.90
11848;DHT22;5983;49.966;8.052;2022-12-07T03:54:52;4.60;99.90
11848;DHT22;5983;49.966;8.052;2022-12-07T03:57:25;4.60;99.90
11848;DHT22;5983;49.966;8.052;2022-12-07T03:59:55;4.60;99.90
11848;DHT22;5983;49.966;8.052;2022-12-07T04:02:26;4.60;99.90
11848;DHT22;5983;49.966;8.052;2022-12-07T04:04:55;4.60;99.90
11848;DHT22;5983;49.966;8.052;2022-12-07T04:07:23;4.60;99.90
11848;DHT22;5983;49.966;8.052;2022-12-07T04:09:50;4.60;99.90
11848;DHT22;5983;49.966;8.052;2022-12-07T04:12:17;4.60;99.90
11848;DHT22;5983;49.966;8.052;2022-12-07T04:14:44;4.60;99.90
11848;DHT22;5983;49.966;8.052;2022-12-07T04:17:11;4.60;99.90
11848;DHT22;5983;49.966;8.052;2022-12-07T04:19:39;4.60;99.90
11848;DHT22;5983;49.966;8.052;2022-12-07T04:22:07;4.60;99.90
11848;DHT22;5983;49.966;8.052;2022-12-07T04:24:34;4.60;99.90
11848;DHT22;5983;49.966;8.052;2022-12-07T04:27:01;4.60;99.90
11848;DHT22;5983;49.966;8.052;2022-12-07T04:29:29;4.60;99.90
11848;DHT22;5983;49.966;8.052;2022-12-07T04:31:56;4.60;99.90
11848;DHT22;5983;49.966;8.052;2022-12-07T04:34:23;4.60;99.90
11848;DHT22;5983;49.966;8.052;2022-12-07T04:36:51;4.60;99.90
11848;DHT22;5983;49.966;8.052;2022-12-07T04:39:21;4.60;99.90
11848;DHT22;5983;49.966;8.052;2022-12-07T04:41:49;4.60;99.90
11848;DHT22;5983;49.966;8.052;2022-12-07T04:44:16;4.60;99.90
11848;DHT22;5983;49.966;8.052;2022-12-07T04:46:45;4.60;99.90
11848;DHT22;5983;49.966;8.052;2022-12-07T04:49:13;4.60;99.90
11848;DHT22;5983;49.966;8.052;2022-12-07T04:51:42;4.60;99.90
11848;DHT22;5983;49.966;8.052;2022-12-07T04:54:10;4.70;99.90
11848;DHT22;5983;49.966;8.052;2022-12-07T04:56:39;4.60;99.90
11848;DHT22;5983;49.966;8.052;2022-12-07T04:59:06;4.70;99.90
11848;DHT22;5983;49.966;8.052;2022-12-07T05:01:35;4.70;99.90
11848;DHT22;5983;49.966;8.052;2022-12-07T05:04:02;4.70;99.90
11848;DHT22;5983;49.966;8.052;2022-12-07T05:06:29;4.80;99.90
11848;DHT22;5983;49.966;8.052;2022-12-07T05:08:56;4.70;99.90
11848;DHT22;5983;49.966;8.052;2022-12-07T05:11:25;4.80;99.90
11848;DHT22;5983;49.966;8.052;2022-12-07T05:14:10;4.80;99.90
11848;DHT22;5983;49.966;8.052;2022-12-07T05:16:39;4.80;99.90
11848;DHT22;5983;49.966;8.052;2022-12-07T05:19:07;4.90;99.90
11848;DHT22;5983;49.966;8.052;2022-12-07T05:21:35;4.80;99.90
11848;DHT22;5983;49.966;8.052;2022-12-07T05:24:03;4.80;99.90
11848;DHT22;5983;49.966;8.052;2022-12-07T05:26:32;4.90;99.90
11848;DHT22;5983;49.966;8.052;2022-12-07T05:29:00;4.90;99.90
11848;DHT22;5983;49.966;8.052;2022-12-07T05:31:27;4.90;99.90
11848;DHT22;5983;49.966;8.052;2022-12-07T05:33:58;4.90;99.90
11848;DHT22;5983;49.966;8.052;2022-12-07T05:36:25;4.90;99.90
11848;DHT22;5983;49.966;8.052;2022-12-07T05:38:54;4.90;99.90
11848;DHT22;5983;49.966;8.052;2022-12-07T05:41:24;4.90;99.90
11848;DHT22;5983;49.966;8.052;2022-12-07T05:44:11;4.90;99.90
11848;DHT22;5983;49.966;8.052;2022-12-07T05:46:38;4.90;99.90
11848;DHT22;5983;49.966;8.052;2022-12-07T05:49:05;5.00;99.90
11848;DHT22;5983;49.966;8.052;2022-12-07T05:51:32;5.00;99.90
11848;DHT22;5983;49.966;8.052;2022-12-07T05:53:59;5.00;99.90
11848;DHT22;5983;49.966;8.052;2022-12-07T05:58:55;5.10;99.90
11848;DHT22;5983;49.966;8.052;2022-12-07T06:01:43;5.00;99.90
11848;DHT22;5983;49.966;8.052;2022-12-07T06:04:11;5.10;99.90
11848;DHT22;5983;49.966;8.052;2022-12-07T06:06:38;5.10;99.90
11848;DHT22;5983;49.966;8.052;2022-12-07T06:09:05;5.10;99.90
11848;DHT22;5983;49.966;8.052;2022-12-07T06:11:33;5.10;99.90
11848;DHT22;5983;49.966;8.052;2022-12-07T06:14:18;5.00;99.90
11848;DHT22;5983;49.966;8.052;2022-12-07T06:16:47;5.10;99.90
11848;DHT22;5983;49.966;8.052;2022-12-07T06:19:14;5.10;99.90
11848;DHT22;5983;49.966;8.052;2022-12-07T06:21:41;5.10;99.90
11848;DHT22;5983;49.966;8.052;2022-12-07T06:24:11;5.00;99.90
11848;DHT22;5983;49.966;8.052;2022-12-07T06:26:39;5.00;99.90
11848;DHT22;5983;49.966;8.052;2022-12-07T06:29:06;5.00;99.90
11848;DHT22;5983;49.966;8.052;2022-12-07T06:31:35;5.00;99.90
11848;DHT22;5983;49.966;8.052;2022-12-07T06:34:05;4.90;99.90
11848;DHT22;5983;49.966;8.052;2022-12-07T06:36:33;4.90;99.90
11848;DHT22;5983;49.966;8.052;2022-12-07T06:39:00;4.90;99.90
11848;DHT22;5983;49.966;8.052;2022-12-07T06:41:28;4.90;99.90
11848;DHT22;5983;49.966;8.052;2022-12-07T06:43:55;4.80;99.90
11848;DHT22;5983;49.966;8.052;2022-12-07T06:46:23;4.80;99.90
11848;DHT22;5983;49.966;8.052;2022-12-07T06:48:50;4.70;99.90
11848;DHT22;5983;49.966;8.052;2022-12-07T06:51:19;4.70;99.90
11848;DHT22;5983;49.966;8.052;2022-12-07T06:53:46;4.70;99.90
11848;DHT22;5983;49.966;8.052;2022-12-07T06:56:12;4.70;99.90
11848;DHT22;5983;49.966;8.052;2022-12-07T06:58:40;4.70;99.90
11848;DHT22;5983;49.966;8.052;2022-12-07T07:01:09;4.60;99.90
11848;DHT22;5983;49.966;8.052;2022-12-07T07:03:37;4.60;99.90
11848;DHT22;5983;49.966;8.052;2022-12-07T07:06:05;4.60;99.90
11848;DHT22;5983;49.966;8.052;2022-12-07T07:08:34;4.60;99.90
11848;DHT22;5983;49.966;8.052;2022-12-07T07:11:01;4.60;99.90
11848;DHT22;5983;49.966;8.052;2022-12-07T07:13:28;4.60;99.90
11848;DHT22;5983;49.966;8.052;2022-12-07T07:15:55;4.60;99.90
11848;DHT22;5983;49.966;8.052;2022-12-07T07:18:23;4.70;99.90
11848;DHT22;5983;49.966;8.052;2022-12-07T07:20:50;4.70;99.90
11848;DHT22;5983;49.966;8.052;2022-12-07T07:23:18;4.80;99.90
11848;DHT22;5983;49.966;8.052;2022-12-07T07:25:47;4.80;99.90
11848;DHT22;5983;49.966;8.052;2022-12-07T07:28:14;4.80;99.90
11848;DHT22;5983;49.966;8.052;2022-12-07T07:30:42;4.80;99.90
11848;DHT22;5983;49.966;8.052;2022-12-07T07:33:09;4.80;99.90
11848;DHT22;5983;49.966;8.052;2022-12-07T07:35:37;4.80;99.90
11848;DHT22;5983;49.966;8.052;2022-12-07T07:38:05;4.80;99.90
11848;DHT22;5983;49.966;8.052;2022-12-07T07:40:32;4.80;99.90
11848;DHT22;5983;49.966;8.052;2022-12-07T07:43:01;4.80;99.90
11848;DHT22;5983;49.966;8.052;2022-12-07T07:45:28;4.90;99.90
11848;DHT22;5983;49.966;8.052;2022-12-07T07:47:55;4.90;99.90
11848;DHT22;5983;49.966;8.052;2022-12-07T07:50:22;4.90;99.90
11848;DHT22;5983;49.966;8.052;2022-12-07T07:52:50;5.00;99.90
11848;DHT22;5983;49.966;8.052;2022-12-07T07:55:17;5.00;99.90
11848;DHT22;5983;49.966;8.052;2022-12-07T07:57:44;5.00;99.90
11848;DHT22;5983;49.966;8.052;2022-12-07T08:00:15;5.00;99.90
11848;DHT22;5983;49.966;8.052;2022-12-07T08:02:43;5.00;99.90
11848;DHT22;5983;49.966;8.052;2022-12-07T08:05:12;5.00;99.90
11848;DHT22;5983;49.966;8.052;2022-12-07T08:07:39;5.00;99.90
11848;DHT22;5983;49.966;8.052;2022-12-07T08:10:08;5.00;99.90
11848;DHT22;5983;49.966;8.052;2022-12-07T08:12:38;5.00;99.90
11848;DHT22;5983;49.966;8.052;2022-12-07T08:15:28;5.00;99.90
11848;DHT22;5983;49.966;8.052;2022-12-07T08:17:56;5.00;99.90
11848;DHT22;5983;49.966;8.052;2022-12-07T08:20:23;5.00;99.90
11848;DHT22;5983;49.966;8.052;2022-12-07T08:22:50;5.00;99.90
11848;DHT22;5983;49.966;8.052;2022-12-07T08:25:17;5.10;99.90
11848;DHT22;5983;49.966;8.052;2022-12-07T08:27:44;5.30;99.90
11848;DHT22;5983;49.966;8.052;2022-12-07T08:30:11;5.40;99.90
11848;DHT22;5983;49.966;8.052;2022-12-07T08:32:40;5.60;99.90
11848;DHT22;5983;49.966;8.052;2022-12-07T08:35:08;5.70;99.90
11848;DHT22;5983;49.966;8.052;2022-12-07T08:37:36;5.80;99.90
11848;DHT22;5983;49.966;8.052;2022-12-07T08:40:05;5.90;99.90
11848;DHT22;5983;49.966;8.052;2022-12-07T08:42:34;6.00;99.90
11848;DHT22;5983;49.966;8.052;2022-12-07T08:45:06;6.00;99.90
11848;DHT22;5983;49.966;8.052;2022-12-07T08:47:35;6.00;99.90
11848;DHT22;5983;49.966;8.052;2022-12-07T08:50:08;6.20;99.90
11848;DHT22;5983;49.966;8.052;2022-12-07T08:52:37;6.80;99.90
11848;DHT22;5983;49.966;8.052;2022-12-07T08:55:09;7.60;99.90
11848;DHT22;5983;49.966;8.052;2022-12-07T08:57:37;8.80;99.90
11848;DHT22;5983;49.966;8.052;2022-12-07T09:00:06;10.00;99.90
11848;DHT22;5983;49.966;8.052;2022-12-07T09:02:34;10.50;99.90
11848;DHT22;5983;49.966;8.052;2022-12-07T09:05:02;11.30;99.90
11848;DHT22;5983;49.966;8.052;2022-12-07T09:07:32;12.70;99.90
11848;DHT22;5983;49.966;8.052;2022-12-07T09:10:00;13.50;99.90
11848;DHT22;5983;49.966;8.052;2022-12-07T09:12:27;13.70;99.90
11848;DHT22;5983;49.966;8.052;2022-12-07T09:14:55;13.80;99.90
11848;DHT22;5983;49.966;8.052;2022-12-07T09:17:22;13.40;99.90
11848;DHT22;5983;49.966;8.052;2022-12-07T09:19:49;12.70;99.90
11848;DHT22;5983;49.966;8.052;2022-12-07T09:22:16;11.90;99.90
11848;DHT22;5983;49.966;8.052;2022-12-07T09:24:45;11.20;99.90
11848;DHT22;5983;49.966;8.052;2022-12-07T09:27:12;10.40;99.90
11848;DHT22;5983;49.966;8.052;2022-12-07T09:29:39;9.70;99.90
11848;DHT22;5983;49.966;8.052;2022-12-07T09:32:06;9.20;99.90
11848;DHT22;5983;49.966;8.052;2022-12-07T09:34:33;8.80;99.90
11848;DHT22;5983;49.966;8.052;2022-12-07T09:37:00;8.50;99.90
11848;DHT22;5983;49.966;8.052;2022-12-07T09:39:29;8.30;99.90
11848;DHT22;5983;49.966;8.052;2022-12-07T09:41:58;8.20;99.90
11848;DHT22;5983;49.966;8.052;2022-12-07T09:44:28;8.20;99.90
11848;DHT22;5983;49.966;8.052;2022-12-07T09:46:56;8.30;99.90
11848;DHT22;5983;49.966;8.052;2022-12-07T09:49:27;8.30;99.90
11848;DHT22;5983;49.966;8.052;2022-12-07T09:52:01;8.50;99.90
11848;DHT22;5983;49.966;8.052;2022-12-07T09:54:30;8.60;99.90
11848;DHT22;5983;49.966;8.052;2022-12-07T09:57:03;8.60;99.90
11848;DHT22;5983;49.966;8.052;2022-12-07T09:59:30;8.50;99.90
11848;DHT22;5983;49.966;8.052;2022-12-07T10:02:21;8.30;99.90
11848;DHT22;5983;49.966;8.052;2022-12-07T10:04:51;8.20;99.90
11848;DHT22;5983;49.966;8.052;2022-12-07T10:07:18;8.30;99.90
11848;DHT22;5983;49.966;8.052;2022-12-07T10:09:45;8.60;99.90
11848;DHT22;5983;49.966;8.052;2022-12-07T10:12:13;9.60;99.90
11848;DHT22;5983;49.966;8.052;2022-12-07T10:14:54;11.80;99.90
11848;DHT22;5983;49.966;8.052;2022-12-07T10:17:30;15.10;99.90
11848;DHT22;5983;49.966;8.052;2022-12-07T10:20:20;18.30;99.90
11848;DHT22;5983;49.966;8.052;2022-12-07T10:22:56;21.10;96.30
11848;DHT22;5983;49.966;8.052;2022-12-07T10:25:27;23.30;83.10
11848;DHT22;5983;49.966;8.052;2022-12-07T10:28:00;25.20;71.10
11848;DHT22;5983;49.966;8.052;2022-12-07T10:30:29;26.80;59.20
11848;DHT22;5983;49.966;8.052;2022-12-07T10:32:58;27.30;54.10
11848;DHT22;5983;49.966;8.052;2022-12-07T10:35:26;27.70;51.10
11848;DHT22;5983;49.966;8.052;2022-12-07T10:37:55;27.70;49.00
11848;DHT22;5983;49.966;8.052;2022-12-07T10:40:31;27.00;49.00
11848;DHT22;5983;49.966;8.052;2022-12-07T10:43:12;25.90;49.80
11848;DHT22;5983;49.966;8.052;2022-12-07T10:46:07;24.10;51.10
11848;DHT22;5983;49.966;8.052;2022-12-07T10:49:03;21.70;54.40
11848;DHT22;5983;49.966;8.052;2022-12-07T10:51:43;19.80;58.00
11848;DHT22;5983;49.966;8.052;2022-12-07T10:54:22;18.80;61.10
11848;DHT22;5983;49.966;8.052;2022-12-07T10:57:19;18.30;63.90
11848;DHT22;5983;49.966;8.052;2022-12-07T11:00:10;17.90;66.20
11848;DHT22;5983;49.966;8.052;2022-12-07T11:02:53;18.90;66.80
11848;DHT22;5983;49.966;8.052;2022-12-07T11:05:39;20.20;63.40
11848;DHT22;5983;49.966;8.052;2022-12-07T11:08:18;20.30;60.90
11848;DHT22;5983;49.966;8.052;2022-12-07T11:10:53;20.20;62.00
11848;DHT22;5983;49.966;8.052;2022-12-07T11:13:29;21.20;60.50
11848;DHT22;5983;49.966;8.052;2022-12-07T11:16:19;22.30;58.70
11848;DHT22;5983;49.966;8.052;2022-12-07T11:19:06;22.10;57.20
11848;DHT22;5983;49.966;8.052;2022-12-07T11:21:50;20.80;58.00
11848;DHT22;5983;49.966;8.052;2022-12-07T11:24:27;19.20;59.20
11848;DHT22;5983;49.966;8.052;2022-12-07T11:27:14;17.70;62.30
11848;DHT22;5983;49.966;8.052;2022-12-07T11:30:01;16.40;64.90
11848;DHT22;5983;49.966;8.052;2022-12-07T11:35:45;15.00;70.60
11848;DHT22;5983;49.966;8.052;2022-12-07T11:38:37;14.50;72.70
11848;DHT22;5983;49.966;8.052;2022-12-07T11:41:10;13.80;75.90
11848;DHT22;5983;49.966;8.052;2022-12-07T11:43:50;13.40;78.60
11848;DHT22;5983;49.966;8.052;2022-12-07T11:46:24;13.00;82.50
11848;DHT22;5983;49.966;8.052;2022-12-07T11:49:02;12.70;86.90
11848;DHT22;5983;49.966;8.052;2022-12-07T11:51:36;12.20;90.70
11848;DHT22;5983;49.966;8.052;2022-12-07T11:54:12;11.60;93.10
11848;DHT22;5983;49.966;8.052;2022-12-07T11:56:44;11.20;95.60
11848;DHT22;5983;49.966;8.052;2022-12-07T11:59:17;10.90;98.10
11848;DHT22;5983;49.966;8.052;2022-12-07T12:01:53;10.80;99.90
11848;DHT22;5983;49.966;8.052;2022-12-07T12:04:34;10.70;99.90
11848;DHT22;5983;49.966;8.052;2022-12-07T12:07:16;10.60;99.90
11848;DHT22;5983;49.966;8.052;2022-12-07T12:09:50;10.60;99.90
11848;DHT22;5983;49.966;8.052;2022-12-07T12:12:47;10.70;99.90
11848;DHT22;5983;49.966;8.052;2022-12-07T12:15:34;10.50;99.90
11848;DHT22;5983;49.966;8.052;2022-12-07T12:18:27;10.30;99.90
11848;DHT22;5983;49.966;8.052;2022-12-07T12:21:08;10.10;99.90
11848;DHT22;5983;49.966;8.052;2022-12-07T12:23:41;9.80;99.90
11848;DHT22;5983;49.966;8.052;2022-12-07T12:26:16;9.60;99.90
11848;DHT22;5983;49.966;8.052;2022-12-07T12:28:52;9.50;99.90
11848;DHT22;5983;49.966;8.052;2022-12-07T12:31:33;9.40;99.90
11848;DHT22;5983;49.966;8.052;2022-12-07T12:34:32;9.40;99.90
11848;DHT22;5983;49.966;8.052;2022-12-07T12:40:40;9.50;99.90
11848;DHT22;5983;49.966;8.052;2022-12-07T12:46:49;9.90;99.90
11848;DHT22;5983;49.966;8.052;2022-12-07T12:49:36;10.10;99.90
11848;DHT22;5983;49.966;8.052;2022-12-07T12:55:48;10.10;99.90
11848;DHT22;5983;49.966;8.052;2022-12-07T12:58:46;9.70;99.90
11848;DHT22;5983;49.966;8.052;2022-12-07T13:01:43;9.40;99.90
11848;DHT22;5983;49.966;8.052;2022-12-07T13:04:37;9.10;99.90
11848;DHT22;5983;49.966;8.052;2022-12-07T13:07:55;9.10;99.90
11848;DHT22;5983;49.966;8.052;2022-12-07T13:10:41;9.90;99.90
11848;DHT22;5983;49.966;8.052;2022-12-07T13:13:38;11.60;99.90
11848;DHT22;5983;49.966;8.052;2022-12-07T13:22:42;17.10;89.40
11848;DHT22;5983;49.966;8.052;2022-12-07T13:25:20;16.40;87.30
11848;DHT22;5983;49.966;8.052;2022-12-07T13:28:00;15.30;90.00
11848;DHT22;5983;49.966;8.052;2022-12-07T13:30:43;14.10;93.20
11848;DHT22;5983;49.966;8.052;2022-12-07T13:33:15;13.00;95.80
11848;DHT22;5983;49.966;8.052;2022-12-07T13:35:44;12.10;98.50
11848;DHT22;5983;49.966;8.052;2022-12-07T13:38:25;11.40;99.90
11848;DHT22;5983;49.966;8.052;2022-12-07T13:41:19;10.80;99.90
11848;DHT22;5983;49.966;8.052;2022-12-07T13:43:52;10.30;99.90
11848;DHT22;5983;49.966;8.052;2022-12-07T13:46:30;9.90;99.90
11848;DHT22;5983;49.966;8.052;2022-12-07T13:49:20;9.60;99.90
11848;DHT22;5983;49.966;8.052;2022-12-07T13:51:49;9.30;99.90
11848;DHT22;5983;49.966;8.052;2022-12-07T13:54:18;9.10;99.90
11848;DHT22;5983;49.966;8.052;2022-12-07T13:56:48;9.00;99.90
11848;DHT22;5983;49.966;8.052;2022-12-07T13:59:21;8.90;99.90
11848;DHT22;5983;49.966;8.052;2022-12-07T14:01:51;8.80;99.90
11848;DHT22;5983;49.966;8.052;2022-12-07T14:04:31;8.70;99.90
11848;DHT22;5983;49.966;8.052;2022-12-07T14:07:01;8.60;99.90
11848;DHT22;5983;49.966;8.052;2022-12-07T14:09:57;8.60;99.90
11848;DHT22;5983;49.966;8.052;2022-12-07T14:12:26;8.40;99.90
11848;DHT22;5983;49.966;8.052;2022-12-07T14:14:56;8.40;99.90
11848;DHT22;5983;49.966;8.052;2022-12-07T14:17:25;8.40;99.90
11848;DHT22;5983;49.966;8.052;2022-12-07T14:19:54;8.40;99.90
11848;DHT22;5983;49.966;8.052;2022-12-07T14:22:30;8.40;99.90
11848;DHT22;5983;49.966;8.052;2022-12-07T14:25:14;8.40;99.90
11848;DHT22;5983;49.966;8.052;2022-12-07T14:27:55;8.50;99.90
11848;DHT22;5983;49.966;8.052;2022-12-07T14:30:26;8.40;99.90
11848;DHT22;5983;49.966;8.052;2022-12-07T14:32:58;8.40;99.90
11848;DHT22;5983;49.966;8.052;2022-12-07T14:35:27;8.40;99.90
11848;DHT22;5983;49.966;8.052;2022-12-07T14:37:55;8.40;99.90
11848;DHT22;5983;49.966;8.052;2022-12-07T14:40:23;8.30;99.90
11848;DHT22;5983;49.966;8.052;2022-12-07T14:42:55;8.20;99.90
11848;DHT22;5983;49.966;8.052;2022-12-07T14:45:25;8.20;99.90
11848;DHT22;5983;49.966;8.052;2022-12-07T14:47:52;8.10;99.90
11848;DHT22;5983;49.966;8.052;2022-12-07T14:50:20;8.00;99.90
11848;DHT22;5983;49.966;8.052;2022-12-07T14:52:50;8.00;99.90
11848;DHT22;5983;49.966;8.052;2022-12-07T14:55:24;7.90;99.90
11848;DHT22;5983;49.966;8.052;2022-12-07T14:57:51;7.80;99.90
11848;DHT22;5983;49.966;8.052;2022-12-07T15:00:20;7.70;99.90
11848;DHT22;5983;49.966;8.052;2022-12-07T15:02:50;7.70;99.90
11848;DHT22;5983;49.966;8.052;2022-12-07T15:05:18;7.60;99.90
11848;DHT22;5983;49.966;8.052;2022-12-07T15:07:46;7.50;99.90
11848;DHT22;5983;49.966;8.052;2022-12-07T15:10:17;7.50;99.90
11848;DHT22;5983;49.966;8.052;2022-12-07T15:12:46;7.50;99.90
11848;DHT22;5983;49.966;8.052;2022-12-07T15:15:14;7.40;99.90
11848;DHT22;5983;49.966;8.052;2022-12-07T15:17:42;7.30;99.90
11848;DHT22;5983;49.966;8.052;2022-12-07T15:20:13;7.30;99.90
11848;DHT22;5983;49.966;8.052;2022-12-07T15:22:42;7.20;99.90
11848;DHT22;5983;49.966;8.052;2022-12-07T15:25:09;7.10;99.90
11848;DHT22;5983;49.966;8.052;2022-12-07T15:27:39;7.00;99.90
11848;DHT22;5983;49.966;8.052;2022-12-07T15:30:07;6.90;99.90
11848;DHT22;5983;49.966;8.052;2022-12-07T15:32:34;6.90;99.90
11848;DHT22;5983;49.966;8.052;2022-12-07T15:35:01;6.80;99.90
11848;DHT22;5983;49.966;8.052;2022-12-07T15:37:29;6.80;99.90
11848;DHT22;5983;49.966;8.052;2022-12-07T15:39:56;6.80;99.90
11848;DHT22;5983;49.966;8.052;2022-12-07T15:42:23;6.80;99.90
11848;DHT22;5983;49.966;8.052;2022-12-07T15:44:50;6.80;99.90
11848;DHT22;5983;49.966;8.052;2022-12-07T15:47:33;6.70;99.90
11848;DHT22;5983;49.966;8.052;2022-12-07T15:50:01;6.70;99.90
11848;DHT22;5983;49.966;8.052;2022-12-07T15:52:30;6.60;99.90
11848;DHT22;5983;49.966;8.052;2022-12-07T15:54:57;6.60;99.90
11848;DHT22;5983;49.966;8.052;2022-12-07T15:57:25;6.60;99.90
11848;DHT22;5983;49.966;8.052;2022-12-07T15:59:52;6.50;99.90
11848;DHT22;5983;49.966;8.052;2022-12-07T16:02:20;6.50;99.90
11848;DHT22;5983;49.966;8.052;2022-12-07T16:04:47;6.50;99.90
11848;DHT22;5983;49.966;8.052;2022-12-07T16:07:15;6.40;99.90
11848;DHT22;5983;49.966;8.052;2022-12-07T16:09:45;6.30;99.90
11848;DHT22;5983;49.966;8.052;2022-12-07T16:12:13;6.30;99.90
11848;DHT22;5983;49.966;8.052;2022-12-07T16:14:40;6.30;99.90
11848;DHT22;5983;49.966;8.052;2022-12-07T16:17:09;6.30;99.90
11848;DHT22;5983;49.966;8.052;2022-12-07T16:19:37;6.20;99.90
11848;DHT22;5983;49.966;8.052;2022-12-07T16:22:04;6.20;99.90
11848;DHT22;5983;49.966;8.052;2022-12-07T16:24:31;6.20;99.90
11848;DHT22;5983;49.966;8.052;2022-12-07T16:27:00;6.20;99.90
11848;DHT22;5983;49.966;8.052;2022-12-07T16:29:27;6.10;99.90
11848;DHT22;5983;49.966;8.052;2022-12-07T16:31:53;6.10;99.90
11848;DHT22;5983;49.966;8.052;2022-12-07T16:34:20;6.00;99.90
11848;DHT22;5983;49.966;8.052;2022-12-07T16:36:47;6.00;99.90
11848;DHT22;5983;49.966;8.052;2022-12-07T16:39:14;6.00;99.90
11848;DHT22;5983;49.966;8.052;2022-12-07T16:41:43;5.90;99.90
11848;DHT22;5983;49.966;8.052;2022-12-07T16:44:12;5.90;99.90
11848;DHT22;5983;49.966;8.052;2022-12-07T16:46:40;5.90;99.90
11848;DHT22;5983;49.966;8.052;2022-12-07T16:49:11;5.80;99.90
11848;DHT22;5983;49.966;8.052;2022-12-07T16:51:39;5.80;99.90
11848;DHT22;5983;49.966;8.052;2022-12-07T16:54:09;5.80;99.90
11848;DHT22;5983;49.966;8.052;2022-12-07T16:56:36;5.80;99.90
11848;DHT22;5983;49.966;8.052;2022-12-07T16:59:03;5.80;99.90
11848;DHT22;5983;49.966;8.052;2022-12-07T17:01:31;5.90;99.90
11848;DHT22;5983;49.966;8.052;2022-12-07T17:04:00;5.90;99.90